Time;durP1;ratioP1;P1;durP2;ratioP2;P2;SDS_P1;SDS_P2;PMS_P1;PMS_P2;Temp;Humidity;BMP_temperature;BMP_pressure;BME280_temperature;BME280_humidity;BME280_pressure;Samples;Min_cycle;Max_cycle;Signal;HPM_P1;HPM_P2
2022/01/03 00:01:59;;;;;;;17.13;4.03;;;11.80;99.90;;;10.12;100.00;100104.25;4988442;28;20061;-88
2022/01/03 00:04:27;;;;;;;20.27;4.40;;;11.80;99.90;;;10.06;100.00;100101.47;4989243;28;20631;-88
2022/01/03 00:06:57;;;;;;;19.35;3.65;;;11.90;99.90;;;10.07;100.00;100106.72;4989028;28;20511;-88
2022/01/03 00:09:26;;;;;;;21.23;3.58;;;11.80;99.90;;;9.95;100.00;100106.34;4989232;28;20038;-88
2022/01/03 00:11:56;;;;;;;14.27;3.42;;;11.80;99.90;;;10.01;100.00;100104.75;4988299;28;20049;-87
2022/01/03 00:14:31;;;;;;;14.48;3.10;;;11.80;99.90;;;10.01;100.00;100107.47;5007021;28;20757;-88
2022/01/03 00:16:59;;;;;;;17.00;3.92;;;11.80;99.90;;;10.06;100.00;100106.91;5008516;28;20042;-87
2022/01/03 00:19:27;;;;;;;17.75;4.03;;;11.80;99.90;;;9.98;100.00;100105.16;5008764;28;20045;-89
2022/01/03 00:21:59;;;;;;;15.07;3.25;;;11.80;99.90;;;9.97;100.00;100109.72;5007912;28;20100;-88
2022/01/03 00:24:34;;;;;;;16.33;3.42;;;11.70;99.90;;;9.99;100.00;100117.69;5008739;28;20038;-88
2022/01/03 00:27:05;;;;;;;17.20;3.85;;;11.70;99.90;;;9.99;100.00;100123.13;5008550;28;20112;-87
2022/01/03 00:29:42;;;;;;;;;;;11.70;99.90;;;9.97;100.00;100119.75;5007778;28;20046;-87
2022/01/03 00:32:12;;;;;;;20.55;3.42;;;11.70;99.90;;;9.98;100.00;100116.88;5006576;28;19968;-88
2022/01/03 00:34:41;;;;;;;22.88;4.05;;;11.70;99.90;;;9.89;100.00;100119.88;5007419;28;20053;-88
2022/01/03 00:37:16;;;;;;;17.75;3.90;;;11.70;99.90;;;9.84;100.00;100127.75;5008570;28;20501;-87
2022/01/03 00:39:44;;;;;;;19.10;3.50;;;11.70;99.90;;;9.74;100.00;100134.31;5005819;28;20160;-88
2022/01/03 00:42:15;;;;;;;19.77;3.40;;;11.60;99.90;;;9.66;100.00;100130.88;5007751;28;20058;-87
2022/01/03 00:44:44;;;;;;;16.08;3.80;;;11.60;99.90;;;9.69;100.00;100117.75;5023512;28;20188;-88
2022/01/03 00:47:12;;;;;;;22.70;3.60;;;11.60;99.90;;;9.78;100.00;100110.34;5009242;23;20135;-83
2022/01/03 00:49:40;;;;;;;23.90;3.90;;;11.60;99.90;;;9.69;100.00;100104.19;4988936;28;20189;-85
2022/01/03 00:52:07;;;;;;;17.27;3.42;;;11.60;99.90;;;9.75;100.00;100111.56;4984426;28;20141;-86
2022/01/03 00:54:34;;;;;;;20.67;3.88;;;11.60;99.90;;;9.70;100.00;100124.88;5007030;28;20148;-85
2022/01/03 00:57:07;;;;;;;23.90;4.30;;;11.60;99.90;;;9.68;100.00;100123.38;4988799;28;20122;-85
2022/01/03 00:59:47;;;;;;;22.55;4.25;;;11.60;99.90;;;9.61;100.00;100139.56;4987162;28;20590;-85
2022/01/03 01:02:15;;;;;;;20.88;3.83;;;11.50;99.90;;;9.67;100.00;100140.69;4970345;28;20529;-85
2022/01/03 01:04:46;;;;;;;24.23;3.80;;;11.50;99.90;;;9.59;100.00;100134.34;4974118;28;20046;-85
2022/01/03 01:07:16;;;;;;;19.90;3.35;;;11.50;99.90;;;9.59;100.00;100139.78;4990936;28;20561;-85
2022/01/03 01:09:49;;;;;;;23.83;4.07;;;11.50;99.90;;;9.53;100.00;100132.34;4992504;28;20587;-85
2022/01/03 01:12:18;;;;;;;22.73;3.97;;;11.50;99.90;;;9.50;100.00;100138.19;4991475;28;20066;-86
2022/01/03 01:14:52;;;;;;;24.83;3.70;;;11.50;99.90;;;9.54;100.00;100141.38;4974514;28;20046;-85
2022/01/03 01:17:22;;;;;;;18.80;3.20;;;11.40;99.90;;;9.47;100.00;100133.13;4990307;28;20408;-83
2022/01/03 01:19:50;;;;;;;21.23;3.75;;;11.40;99.90;;;9.50;100.00;100131.88;4974211;28;20421;-86
2022/01/03 01:22:21;;;;;;;31.88;4.63;;;11.40;99.90;;;9.52;100.00;100132.53;4973363;28;20133;-83
2022/01/03 01:24:59;;;;;;;20.23;3.28;;;11.40;99.90;;;9.56;100.00;100147.47;4990420;28;20054;-86
2022/01/03 01:30:14;;;;;;;17.70;3.58;;;11.40;99.90;;;9.50;100.00;100140.03;4990290;28;20065;-86
2022/01/03 01:32:47;;;;;;;23.52;3.90;;;11.40;99.90;;;9.47;100.00;100146.69;4989338;28;20105;-86
2022/01/03 01:35:15;;;;;;;26.90;3.78;;;11.40;99.90;;;9.46;100.00;100146.88;4973944;28;20141;-85
2022/01/03 01:37:45;;;;;;;21.15;3.80;;;11.40;99.90;;;9.47;100.00;100140.44;4991489;28;20038;-86
2022/01/03 01:40:14;;;;;;;24.73;3.75;;;11.30;99.90;;;9.52;100.00;100157.00;4990171;28;20683;-86
2022/01/03 01:42:46;;;;;;;28.33;4.03;;;11.30;99.90;;;9.53;100.00;100156.81;4973304;28;20057;-86
2022/01/03 01:45:19;;;;;;;21.42;3.95;;;11.30;99.90;;;9.56;100.00;100151.00;4991556;28;20451;-84
2022/01/03 01:47:49;;;;;;;14.57;3.30;;;11.30;99.90;;;9.54;100.00;100141.38;4989924;28;20051;-83
2022/01/03 01:50:17;;;;;;;22.13;3.67;;;11.30;99.90;;;9.52;100.00;100144.28;4990192;28;20426;-84
2022/01/03 01:52:47;;;;;;;28.15;4.00;;;11.30;99.90;;;9.46;100.00;100155.03;4972865;28;20138;-84
2022/01/03 01:55:16;;;;;;;23.00;3.50;;;11.30;99.90;;;9.48;100.00;100144.81;4989939;28;20602;-86
2022/01/03 01:57:57;;;;;;;22.17;3.58;;;11.30;99.90;;;9.41;100.00;100157.47;4973464;28;20121;-86
2022/01/03 02:00:35;;;;;;;17.17;3.30;;;11.30;99.90;;;9.41;100.00;100162.91;4989837;28;20050;-86
2022/01/03 02:03:20;;;;;;;24.90;4.45;;;11.30;99.90;;;9.41;100.00;100152.06;4972691;28;20046;-86
2022/01/03 02:06:10;;;;;;;21.02;3.88;;;11.20;99.90;;;9.45;100.00;100165.06;4989764;28;20074;-85
2022/01/03 02:08:44;;;;;;;23.27;3.90;;;11.20;99.90;;;9.44;100.00;100160.63;4991283;28;20121;-85
2022/01/03 02:11:24;;;;;;;23.42;4.22;;;11.20;99.90;;;9.50;100.00;100161.78;4989061;28;20046;-85
2022/01/03 02:13:53;;;;;;;20.45;4.10;;;11.30;99.90;;;9.46;100.00;100161.31;4989427;28;20078;-86
2022/01/03 02:16:24;;;;;;;26.85;4.22;;;11.20;99.90;;;9.45;100.00;100164.22;4991057;28;20070;-86
2022/01/03 02:18:54;;;;;;;27.02;4.38;;;11.20;99.90;;;9.41;100.00;100165.63;4994231;28;20133;-86
2022/01/03 02:21:23;;;;;;;20.98;3.20;;;11.20;99.90;;;9.44;100.00;100155.22;4992193;28;20532;-86
2022/01/03 02:23:52;;;;;;;;;;;11.20;99.90;;;9.43;100.00;100158.97;4993268;28;20050;-86
2022/01/03 02:26:20;;;;;;;23.17;3.75;;;11.20;99.90;;;9.37;100.00;100166.00;4992539;28;19925;-85
2022/01/03 02:28:50;;;;;;;23.05;4.38;;;11.20;99.90;;;9.44;100.00;100162.53;4992732;28;20488;-85
2022/01/03 02:31:18;;;;;;;23.40;4.07;;;11.20;99.90;;;9.45;100.00;100169.66;4991907;28;20165;-86
2022/01/03 02:33:46;;;;;;;23.48;4.22;;;11.20;99.90;;;9.43;100.00;100161.69;5008920;28;20156;-85
2022/01/03 02:36:14;;;;;;;19.95;4.05;;;11.20;99.90;;;9.47;100.00;100175.75;4992361;28;20054;-86
2022/01/03 02:38:44;;;;;;;26.75;4.07;;;11.20;99.90;;;9.48;100.00;100163.81;4992522;28;20521;-86
2022/01/03 02:41:12;;;;;;;24.58;4.63;;;11.20;99.90;;;9.50;100.00;100162.63;5008006;28;20050;-86
2022/01/03 02:43:40;;;;;;;20.20;3.33;;;11.20;99.90;;;9.56;100.00;100166.47;4992409;28;20148;-85
2022/01/03 02:46:08;;;;;;;22.48;3.67;;;11.20;99.90;;;9.55;100.00;100156.63;4991998;28;20104;-85
2022/01/03 02:48:35;;;;;;;20.75;3.60;;;11.20;99.90;;;9.47;100.00;100154.00;5010116;28;20050;-86
2022/01/03 02:51:03;;;;;;;24.25;3.47;;;11.30;99.90;;;9.42;100.00;100159.16;4974836;28;20050;-85
2022/01/03 02:53:30;;;;;;;20.52;3.17;;;11.20;99.90;;;9.44;100.00;100163.34;4990591;28;20143;-86
2022/01/03 02:55:59;;;;;;;17.98;2.88;;;11.20;99.90;;;9.45;100.00;100169.66;4988885;28;20061;-86
2022/01/03 02:58:27;;;;;;;17.23;3.13;;;11.20;99.90;;;9.48;100.00;100166.53;4972814;28;20050;-86
2022/01/03 03:00:54;;;;;;;27.48;3.40;;;11.20;99.90;;;9.38;100.00;100154.06;4988849;28;20050;-85
2022/01/03 03:03:40;;;;;;;23.50;3.53;;;11.20;99.90;;;9.37;100.00;100157.84;4988864;28;20052;-85
2022/01/03 03:06:08;;;;;;;21.95;3.38;;;11.20;99.90;;;9.43;100.00;100180.69;4988572;28;20066;-85
2022/01/03 03:08:36;;;;;;;23.13;3.13;;;11.10;99.90;;;9.44;100.00;100178.81;4972309;28;20046;-85
2022/01/03 03:11:05;;;;;;;17.05;3.20;;;11.10;99.90;;;9.34;100.00;100181.81;4987647;28;20420;-85
2022/01/03 03:13:33;;;;;;;19.30;3.38;;;11.10;99.90;;;9.37;100.00;100174.13;4988259;28;20050;-85
2022/01/03 03:16:04;;;;;;;24.30;3.30;;;11.10;99.90;;;9.29;100.00;100186.94;4988011;28;20113;-85
2022/01/03 03:18:32;;;;;;;22.58;3.50;;;11.10;99.90;;;9.29;100.00;100186.94;4972124;28;20046;-85
2022/01/03 03:21:00;;;;;;;20.33;4.20;;;11.10;99.90;;;9.38;100.00;100183.13;4989445;28;20108;-86
2022/01/03 03:23:27;;;;;;;16.05;2.80;;;11.10;99.90;;;9.37;100.00;100182.28;4989730;28;20057;-85
2022/01/03 03:25:55;;;;;;;16.02;3.63;;;11.10;99.90;;;9.35;100.00;100192.50;4987270;28;20493;-85
2022/01/03 03:28:25;;;;;;;23.23;3.80;;;11.10;99.90;;;9.35;100.00;100189.78;4988102;28;20113;-85
2022/01/03 03:30:56;;;;;;;24.45;3.78;;;11.10;99.90;;;9.33;100.00;100189.13;4988059;28;20133;-85
2022/01/03 03:33:32;;;;;;;22.30;3.70;;;11.00;99.90;;;9.27;100.00;100181.72;4987870;28;20054;-86
2022/01/03 03:36:02;;;;;;;26.95;3.63;;;11.00;99.90;;;9.25;100.00;100189.16;4971811;28;20049;-85
2022/01/03 03:38:30;;;;;;;21.02;3.70;;;11.10;99.90;;;9.31;100.00;100191.19;4988007;28;20462;-85
2022/01/03 03:41:02;;;;;;;19.80;2.95;;;11.10;99.90;;;9.36;100.00;100187.91;4987215;28;20128;-85
2022/01/03 03:43:35;;;;;;;23.15;4.10;;;11.10;99.90;;;9.34;100.00;100188.06;4971790;28;20054;-85
2022/01/03 03:46:07;;;;;;;17.55;3.45;;;11.10;99.90;;;9.39;100.00;100199.22;4987519;28;20042;-85
2022/01/03 03:48:34;;;;;;;15.77;2.88;;;11.10;99.90;;;9.41;100.00;100195.50;4989338;28;20045;-85
2022/01/03 03:51:03;;;;;;;17.42;3.22;;;11.10;99.90;;;9.32;100.00;100192.84;4987052;28;20566;-85
2022/01/03 03:53:31;;;;;;;21.23;3.42;;;11.10;99.90;;;9.34;100.00;100182.63;4971513;28;20042;-86
2022/01/03 03:55:59;;;;;;;21.77;3.28;;;11.10;99.90;;;9.41;100.00;100198.22;4987466;28;20081;-85
2022/01/03 03:58:29;;;;;;;21.77;4.25;;;11.10;99.90;;;9.36;100.00;100199.59;4971792;28;20046;-85
2022/01/03 04:00:58;;;;;;;19.23;3.33;;;11.10;99.90;;;9.42;100.00;100192.56;4971229;28;20046;-86
2022/01/03 04:03:26;;;;;;;15.85;3.00;;;11.10;99.90;;;9.44;100.00;100195.13;4987677;28;20121;-85
2022/01/03 04:05:54;;;;;;;23.08;3.58;;;11.10;99.90;;;9.38;100.00;100188.53;4971130;28;20054;-85
2022/01/03 04:08:21;;;;;;;24.70;3.40;;;11.10;99.90;;;9.35;100.00;100187.06;4987734;28;20054;-85
2022/01/03 04:10:48;;;;;;;19.33;2.97;;;11.10;99.90;;;9.34;100.00;100200.81;4987551;28;20459;-84
2022/01/03 04:13:16;;;;;;;24.70;3.72;;;11.10;99.90;;;9.36;100.00;100191.44;4986865;28;20097;-85
2022/01/03 04:15:43;;;;;;;19.60;2.88;;;11.10;99.90;;;9.42;100.00;100203.44;4971322;28;20249;-85
2022/01/03 04:18:12;;;;;;;22.52;4.22;;;11.10;99.90;;;9.38;100.00;100196.69;4987441;28;20061;-85
2022/01/03 04:20:39;;;;;;;23.23;4.10;;;11.10;99.90;;;9.42;100.00;100194.47;4986414;28;20136;-85
2022/01/03 04:23:07;;;;;;;21.65;3.08;;;11.10;99.90;;;9.42;100.00;100199.88;4989841;28;20046;-85
2022/01/03 04:25:34;;;;;;;22.92;3.72;;;11.20;99.90;;;9.46;100.00;100193.06;5008397;28;20060;-85
2022/01/03 04:28:02;;;;;;;22.73;3.30;;;11.20;99.90;;;9.50;100.00;100188.94;4990450;28;20060;-86
2022/01/03 04:30:30;;;;;;;20.00;3.90;;;11.10;99.90;;;9.47;100.00;100192.03;4990609;28;20049;-85
2022/01/03 04:32:57;;;;;;;12.75;2.97;;;11.20;99.90;;;9.45;100.00;100191.38;4989785;28;20066;-85
2022/01/03 04:35:26;;;;;;;18.55;3.42;;;11.20;99.90;;;9.28;100.00;100191.53;4990579;28;20057;-85
2022/01/03 04:37:55;;;;;;;25.53;3.30;;;11.10;99.90;;;9.25;100.00;100191.88;4992816;28;20096;-85
2022/01/03 04:40:22;;;;;;;18.20;2.92;;;11.10;99.90;;;9.22;100.00;100195.00;5012263;28;20046;-84
2022/01/03 04:42:51;;;;;;;16.75;2.97;;;11.00;99.90;;;9.21;100.00;100185.16;5010377;28;20054;-85
2022/01/03 04:45:19;;;;;;;21.73;3.70;;;11.00;99.90;;;9.22;100.00;100172.44;4994535;28;20635;-85
2022/01/03 04:47:46;;;;;;;18.48;3.20;;;11.00;99.90;;;9.17;100.00;100179.22;4995046;28;20094;-85
2022/01/03 04:50:14;;;;;;;19.73;4.32;;;11.00;99.90;;;9.16;100.00;100187.59;4994490;28;20061;-85
2022/01/03 04:52:44;;;;;;;20.17;3.67;;;11.00;99.90;;;9.14;100.00;100174.19;4993537;28;20085;-85
2022/01/03 04:55:11;;;;;;;21.58;3.25;;;11.00;99.90;;;9.15;100.00;100180.47;4994182;28;20053;-85
2022/01/03 04:57:38;;;;;;;20.40;2.90;;;11.00;99.90;;;9.15;100.00;100180.47;4994037;28;20410;-85
2022/01/03 05:00:10;;;;;;;23.85;3.70;;;11.00;99.90;;;9.21;100.00;100174.28;4994080;28;20054;-85
2022/01/03 05:02:37;;;;;;;21.25;3.35;;;11.00;99.90;;;9.18;100.00;100169.25;4993208;28;20140;-85
2022/01/03 05:05:06;;;;;;;19.85;3.25;;;11.00;99.90;;;9.26;100.00;100173.75;4994180;28;20045;-85
2022/01/03 05:07:34;;;;;;;17.20;3.22;;;11.00;99.90;;;9.25;100.00;100180.19;5010326;28;20049;-85
2022/01/03 05:10:03;;;;;;;15.63;2.83;;;11.00;99.90;;;9.14;100.00;100173.34;4994130;28;20076;-87
2022/01/03 05:12:30;;;;;;;16.35;3.05;;;11.00;99.90;;;9.08;100.00;100185.78;4995576;28;20115;-93
2022/01/03 05:14:58;;;;;;;21.85;3.92;;;11.00;99.90;;;9.03;100.00;100174.63;5019434;28;20045;-92
2022/01/03 05:17:25;;;;;;;21.05;3.55;;;10.90;99.90;;;9.05;100.00;100179.88;4994878;28;20518;-96
2022/01/03 05:19:53;;;;;;;18.75;3.92;;;10.90;99.90;;;9.05;100.00;100172.56;4995066;28;20057;-93
2022/01/03 05:22:21;;;;;;;24.58;3.55;;;10.90;99.90;;;9.08;100.00;100180.34;4994400;28;20054;-94
2022/01/03 05:24:49;;;;;;;17.33;2.72;;;10.90;99.90;;;9.12;100.00;100176.25;4994795;28;20069;-92
2022/01/03 05:27:18;;;;;;;19.15;3.25;;;10.90;99.90;;;9.12;100.00;100164.53;4994385;28;20045;-92
2022/01/03 05:29:46;;;;;;;20.33;3.42;;;10.90;99.90;;;9.14;100.00;100163.31;4994720;28;20406;-92
2022/01/03 05:32:13;;;;;;;20.35;3.65;;;10.90;99.90;;;9.19;100.00;100171.78;4993815;28;20049;-93
2022/01/03 05:34:41;;;;;;;19.98;3.35;;;10.90;99.90;;;9.24;100.00;100149.50;5011986;28;20038;-92
2022/01/03 05:37:09;;;;;;;22.48;3.90;;;11.00;99.90;;;9.25;100.00;100148.44;4994155;28;20046;-95
2022/01/03 05:39:37;;;;;;;19.40;3.22;;;10.90;99.90;;;9.25;100.00;100159.31;4994457;28;20073;-94
2022/01/03 05:42:06;;;;;;;16.27;3.10;;;11.00;99.90;;;9.25;100.00;100156.59;5012776;28;20455;-95
2022/01/03 05:44:35;;;;;;;19.80;2.80;;;11.00;99.90;;;9.23;100.00;100163.25;5010947;28;20046;-92
2022/01/03 05:47:02;;;;;;;24.00;3.90;;;10.90;99.90;;;9.27;100.00;100156.41;4993139;28;20049;-92
2022/01/03 05:49:30;;;;;;;20.42;2.92;;;11.00;99.90;;;9.29;100.00;100155.22;4993209;28;20054;-92
2022/01/03 05:51:58;;;;;;;15.90;3.30;;;11.00;99.90;;;9.18;100.00;100153.78;4995712;28;20057;-94
2022/01/03 05:54:25;;;;;;;20.17;3.25;;;11.00;99.90;;;9.18;100.00;100150.22;4993753;28;20042;-91
2022/01/03 05:56:53;;;;;;;19.58;3.75;;;11.00;99.90;;;9.23;100.00;100153.22;4993732;28;20077;-92
2022/01/03 05:59:21;;;;;;;16.83;3.40;;;11.00;99.90;;;9.23;100.00;100155.94;4993699;28;20050;-93
2022/01/03 06:01:51;;;;;;;18.60;3.17;;;11.00;99.90;;;9.20;100.00;100146.28;4992773;28;20042;-91
2022/01/03 06:04:25;;;;;;;19.52;3.53;;;11.00;99.90;;;9.14;100.00;100148.91;4993622;28;20050;-91
2022/01/03 06:07:09;;;;;;;;;;;;;;;;;;;;;
2022/01/03 06:09:59;;;;;;;21.70;3.53;;;11.00;99.90;;;9.16;100.00;100133.28;5001997;28;19931;-91
2022/01/03 06:12:27;;;;;;;18.30;3.42;;;11.00;99.90;;;9.15;100.00;100131.59;5010170;28;20045;-91
2022/01/03 06:14:56;;;;;;;22.40;3.22;;;11.00;99.90;;;9.19;100.00;100138.31;4997015;28;20049;-91
2022/01/03 06:18:04;;;;;;;18.98;3.72;;;11.00;99.90;;;9.20;100.00;100132.72;4974494;28;20788;-93
2022/01/03 06:20:37;;;;;;;17.75;3.05;;;11.00;99.90;;;9.27;100.00;100140.97;4990840;28;20054;-95
2022/01/03 06:23:43;;;;;;;14.73;2.60;;;11.00;99.90;;;9.28;100.00;100129.06;5000968;28;20046;-94
2022/01/03 06:26:44;;;;;;;18.50;3.30;;;10.90;99.90;;;9.27;100.00;100135.56;5000281;28;20076;-94
2022/01/03 06:48:40;;;;;;;22.27;3.65;;;11.00;99.90;;;9.42;100.00;100123.84;5012441;28;20117;-91
2022/01/03 06:51:08;;;;;;;18.23;3.10;;;11.00;99.90;;;9.42;100.00;100123.84;4995942;28;20054;-89
2022/01/03 06:53:35;;;;;;;20.30;3.67;;;11.00;99.90;;;9.42;100.00;100134.72;4991702;28;20057;-90
2022/01/03 06:56:03;;;;;;;20.70;3.42;;;11.00;99.90;;;9.45;100.00;100137.91;4992126;28;20100;-89
2022/01/03 06:58:32;;;;;;;18.30;3.33;;;11.00;99.90;;;9.47;100.00;100132.28;5008745;28;20506;-82
2022/01/03 07:01:06;;;;;;;18.80;3.13;;;11.10;99.90;;;9.41;100.00;100135.75;4995485;28;20081;-93
2022/01/03 07:03:34;;;;;;;21.23;3.83;;;11.10;99.90;;;9.39;100.00;100139.47;4993431;28;20069;-91
2022/01/03 07:06:03;;;;;;;19.35;3.40;;;11.00;99.90;;;9.40;100.00;100129.44;4994575;28;20434;-93
2022/01/03 07:08:30;;;;;;;17.63;3.92;;;11.10;99.90;;;9.37;100.00;100143.44;4994303;28;20052;-91
2022/01/03 07:10:58;;;;;;;17.92;3.13;;;11.10;99.90;;;9.32;100.00;100141.25;4993939;28;20458;-89
2022/01/03 07:13:39;;;;;;;21.38;3.03;;;11.10;99.90;;;9.33;100.00;100137.53;5009493;28;20054;-93
2022/01/03 07:18:58;;;;;;;17.92;3.22;;;11.10;99.90;;;9.36;100.00;100139.84;4993547;28;20050;-91
2022/01/03 07:21:29;;;;;;;21.75;2.92;;;11.10;99.90;;;9.30;100.00;100129.72;4993804;28;20100;-93
2022/01/03 07:23:57;;;;;;;18.67;3.65;;;11.10;99.90;;;9.30;100.00;100135.16;5011651;28;20494;-91
2022/01/03 07:26:54;;;;;;;16.02;3.47;;;11.10;99.90;;;9.26;100.00;100123.00;5009820;28;20045;-94
2022/01/03 07:29:30;;;;;;;21.65;3.58;;;11.10;99.90;;;9.33;100.00;100123.09;4992960;28;20061;-94
2022/01/03 07:32:03;;;;;;;19.23;3.55;;;11.10;99.90;;;9.37;100.00;100125.25;5011308;28;20137;-94
2022/01/03 07:34:48;;;;;;;20.10;3.33;;;11.10;99.90;;;9.37;100.00;100125.25;5010769;28;20145;-94
2022/01/03 07:37:38;;;;;;;;;;;;;;;;;;;;;
2022/01/03 07:40:29;;;;;;;16.98;3.15;;;11.10;99.90;;;9.31;100.00;100123.28;5010883;28;20078;-94
2022/01/03 07:43:00;;;;;;;18.02;3.40;;;11.10;99.90;;;9.32;100.00;100127.66;5010691;28;20045;-93
2022/01/03 07:45:46;;;;;;;22.88;3.58;;;11.10;99.90;;;9.32;100.00;100126.84;5011193;28;20046;-94
2022/01/03 07:48:26;;;;;;;15.00;2.88;;;11.10;99.90;;;9.38;100.00;100129.63;5010929;28;20131;-93
2022/01/03 07:51:19;;;;;;;16.15;3.03;;;11.10;99.90;;;9.46;100.00;100126.00;5027687;28;20057;-93
2022/01/03 07:53:53;;;;;;;23.13;3.30;;;11.10;99.90;;;9.44;100.00;100132.66;5010352;28;20053;-93
2022/01/03 07:56:20;;;;;;;;;;;11.10;99.90;;;9.43;100.00;100141.84;5009167;28;20104;-86
2022/01/03 07:58:48;;;;;;;16.52;3.38;;;11.20;99.90;;;9.38;100.00;100126.91;5008782;28;19921;-86
2022/01/03 08:04:25;;;;;;;21.95;3.67;;;11.20;99.90;;;9.53;100.00;100126.94;5008488;28;20065;-88
2022/01/03 08:11:04;;;;;;;20.30;3.17;;;11.20;99.90;;;9.45;100.00;100137.91;4835674;29;20114;-88
2022/01/03 08:13:33;;;;;;;20.77;3.45;;;11.20;99.90;;;9.46;100.00;100133.28;4895315;29;20155;-88
2022/01/03 08:16:02;;;;;;;19.52;2.95;;;11.20;99.90;;;9.36;100.00;100139.84;4947273;28;20499;-89
2022/01/03 08:18:32;;;;;;;17.27;3.22;;;11.20;99.90;;;9.42;100.00;100132.00;4947497;28;20098;-88
2022/01/03 08:21:01;;;;;;;20.27;3.60;;;11.20;99.90;;;9.46;100.00;100133.28;4930519;29;20047;-89
2022/01/03 08:23:32;;;;;;;18.55;3.63;;;11.10;99.90;;;9.41;100.00;100124.88;4947659;29;20126;-89
2022/01/03 08:26:02;;;;;;;18.77;3.08;;;11.20;99.90;;;9.32;100.00;100122.25;4947589;29;20047;-88
2022/01/03 08:28:31;;;;;;;17.60;3.17;;;11.20;99.90;;;9.41;100.00;100133.03;4931354;29;20510;-88
2022/01/03 08:31:00;;;;;;;17.50;4.15;;;11.10;99.90;;;9.39;100.00;100128.63;4947347;29;20566;-87
2022/01/03 08:33:29;;;;;;;21.20;3.75;;;11.10;99.90;;;9.44;100.00;100130.75;4947239;29;20493;-89
2022/01/03 08:35:58;;;;;;;20.05;3.25;;;11.20;99.90;;;9.46;100.00;100127.88;4947200;29;20078;-88
2022/01/03 08:38:27;;;;;;;15.90;3.00;;;11.20;99.90;;;9.45;100.00;100135.19;4947314;28;20047;-87
2022/01/03 08:40:57;;;;;;;22.23;3.75;;;11.20;99.90;;;9.48;100.00;100142.09;4946957;29;20070;-87
2022/01/03 08:43:27;;;;;;;20.90;5.93;;;11.20;99.90;;;9.47;100.00;100146.69;4930617;29;20054;-88
2022/01/03 08:45:55;;;;;;;17.50;3.67;;;11.20;99.90;;;9.52;100.00;100137.97;4947298;28;20047;-89
2022/01/03 08:48:22;;;;;;;21.80;4.05;;;11.20;99.90;;;9.56;100.00;100142.03;5008219;28;20042;-90
2022/01/03 08:50:50;;;;;;;26.23;3.47;;;11.20;99.90;;;9.63;100.00;100128.53;5008287;28;20048;-88
2022/01/03 08:53:17;;;;;;;14.02;3.25;;;11.20;99.90;;;9.66;100.00;100131.72;4993057;28;20081;-89
2022/01/03 08:55:44;;;;;;;21.85;4.60;;;11.20;99.90;;;9.65;100.00;100121.84;4990437;28;20054;-89
2022/01/03 08:58:12;;;;;;;20.80;3.60;;;11.20;99.90;;;9.66;100.00;100123.56;5008150;28;20124;-87
2022/01/03 09:00:41;;;;;;;14.38;3.25;;;11.30;99.90;;;9.62;100.00;100124.97;5008323;28;20568;-88
2022/01/03 09:03:08;;;;;;;23.52;4.05;;;11.30;99.90;;;9.62;100.00;100137.72;5007486;28;20160;-90
2022/01/03 09:05:35;;;;;;;24.10;4.05;;;11.30;99.90;;;9.52;100.00;100141.56;5008200;28;20041;-89
2022/01/03 09:08:03;;;;;;;21.90;4.20;;;11.30;99.90;;;9.58;100.00;100140.81;5007661;28;20053;-90
2022/01/03 09:10:31;;;;;;;20.00;3.63;;;11.20;99.90;;;9.62;100.00;100132.28;5006560;28;20477;-88
2022/01/03 09:12:58;;;;;;;18.55;3.30;;;11.20;99.90;;;9.63;100.00;100139.38;4989598;28;20149;-90
2022/01/03 09:15:25;;;;;;;20.65;3.67;;;11.20;99.90;;;9.66;100.00;100134.44;5008192;28;20136;-89
2022/01/03 09:17:54;;;;;;;19.13;3.40;;;11.30;99.90;;;9.66;100.00;100142.56;5000603;28;20066;-90
2022/01/03 09:20:22;;;;;;;28.23;4.22;;;11.30;99.90;;;9.71;100.00;100131.13;5015933;28;20125;-89
2022/01/03 09:22:55;;;;;;;23.77;3.97;;;11.30;99.90;;;9.74;100.00;100123.44;5016301;28;20044;-90
2022/01/03 09:30:53;;;;;;;19.83;3.80;;;11.30;99.90;;;9.83;100.00;100117.94;5009718;28;20030;-88
2022/01/03 09:33:21;;;;;;;21.92;4.22;;;11.40;99.90;;;9.95;100.00;100121.84;5017284;28;20665;-90
2022/01/03 09:35:51;;;;;;;25.73;3.33;;;11.40;99.90;;;9.90;100.00;100108.81;5014791;28;20099;-89
2022/01/03 09:38:18;;;;;;;20.83;3.83;;;11.50;99.90;;;9.94;100.00;100121.00;5007090;28;20049;-89
2022/01/03 09:40:48;;;;;;;17.08;3.47;;;11.50;99.90;;;9.95;100.00;100127.28;4992650;28;20115;-89
2022/01/03 09:43:18;;;;;;;22.30;3.95;;;11.50;99.90;;;10.02;100.00;100136.34;5017336;28;20419;-89
2022/01/03 09:45:48;;;;;;;24.05;3.78;;;11.50;99.90;;;10.09;100.00;100133.69;5008357;28;20835;-89
2022/01/03 09:48:17;;;;;;;24.02;4.43;;;11.60;99.90;;;10.11;100.00;100143.38;5007046;28;20041;-89
2022/01/03 09:50:46;;;;;;;24.38;3.70;;;11.60;99.90;;;10.15;100.00;100139.25;5016311;28;20038;-90
2022/01/03 09:53:14;;;;;;;21.08;3.42;;;11.70;99.90;;;10.24;100.00;100136.38;5009488;28;20100;-89
2022/01/03 09:55:43;;;;;;;18.90;3.97;;;11.70;99.90;;;10.35;100.00;100127.75;5010612;28;20549;-89
2022/01/03 09:58:13;;;;;;;17.77;3.70;;;11.80;99.90;;;10.34;100.00;100123.38;5010276;28;20046;-89
2022/01/03 10:00:41;;;;;;;20.25;3.72;;;11.80;99.90;;;10.31;100.00;100116.41;5010654;28;20088;-90
2022/01/03 10:03:08;;;;;;;19.73;3.50;;;11.80;99.90;;;10.25;100.00;100114.44;5006503;28;20498;-89
2022/01/03 10:05:36;;;;;;;20.00;3.50;;;11.80;99.90;;;10.16;100.00;100113.72;5010440;28;20054;-89
2022/01/03 10:08:05;;;;;;;24.58;4.07;;;11.80;99.90;;;10.15;100.00;100119.38;5008873;28;20046;-90
2022/01/03 10:10:34;;;;;;;15.90;3.60;;;11.80;99.90;;;10.14;100.00;100110.34;5009144;28;20135;-90
2022/01/03 10:13:02;;;;;;;23.55;3.55;;;11.80;99.90;;;10.19;100.00;100128.81;4987565;28;20042;-89
2022/01/03 10:15:29;;;;;;;23.88;3.85;;;11.80;99.90;;;10.21;100.00;100118.59;4992089;28;20049;-88
2022/01/03 10:17:57;;;;;;;15.40;3.10;;;11.80;99.90;;;10.22;100.00;100120.25;5010827;28;20073;-89
2022/01/03 10:20:30;;;;;;;23.33;3.53;;;11.80;99.90;;;10.31;100.00;100107.44;5009588;28;20058;-91
2022/01/03 10:23:10;;;;;;;48.67;10.95;;;11.80;99.90;;;10.32;100.00;100085.47;4991909;28;20046;-88
2022/01/03 10:25:38;;;;;;;19.42;3.58;;;11.80;99.90;;;10.30;100.00;100062.19;5010374;28;20043;-88
2022/01/03 10:28:06;;;;;;;17.30;3.63;;;11.80;99.90;;;10.24;100.00;100076.56;5009021;28;20053;-88
2022/01/03 10:30:38;;;;;;;18.05;3.42;;;11.80;99.90;;;10.26;100.00;100078.06;5008070;28;20060;-88
2022/01/03 10:33:08;;;;;;;23.52;3.75;;;11.80;99.90;;;10.31;100.00;100072.06;4987634;28;20526;-88
2022/01/03 10:35:39;;;;;;;15.27;3.33;;;11.80;99.90;;;10.32;100.00;100074.59;5009773;28;20049;-89
2022/01/03 10:38:08;;;;;;;18.25;3.35;;;11.90;99.90;;;10.36;100.00;100058.75;5010071;28;20417;-88
2022/01/03 10:40:38;;;;;;;16.55;3.67;;;11.90;99.90;;;10.44;100.00;100061.31;5010215;28;20120;-90
2022/01/03 10:43:18;;;;;;;17.77;3.50;;;11.90;99.90;;;10.45;100.00;100063.00;5009370;28;20053;-88
2022/01/03 10:45:47;;;;;;;15.07;2.78;;;11.90;99.90;;;10.44;100.00;100060.47;5009960;28;20135;-88
2022/01/03 10:48:31;;;;;;;14.80;2.28;;;12.00;99.90;;;10.45;100.00;100054.84;5006969;28;20053;-91
2022/01/03 10:51:00;;;;;;;15.00;3.42;;;12.00;99.90;;;10.48;100.00;100045.44;5004629;28;20042;-88
2022/01/03 10:53:36;;;;;;;18.33;3.30;;;12.00;99.90;;;10.54;100.00;100042.78;5009538;28;20099;-90
2022/01/03 10:56:33;;;;;;;17.48;3.35;;;12.00;99.90;;;10.49;100.00;100042.53;5009010;28;20046;-94
2022/01/03 10:59:05;;;;;;;18.08;4.15;;;12.00;99.90;;;10.51;100.00;100053.22;4979317;28;20048;-93
2022/01/03 11:01:33;;;;;;;18.92;3.38;;;12.00;99.90;;;10.50;100.00;100043.38;4993136;28;20141;-93